sensor_id;sensor_type;location;lat;lon;timestamp;P1;durP1;ratioP1;P2;durP2;ratioP2
18290;SDS011;9271;48.590;8.866;2024-03-17T00:00:59;4.87;;;4.40;;
18290;SDS011;9271;48.590;8.866;2024-03-17T00:03:26;4.83;;;4.33;;
18290;SDS011;9271;48.590;8.866;2024-03-17T00:05:57;4.53;;;4.13;;
18290;SDS011;9271;48.590;8.866;2024-03-17T00:08:24;5.13;;;4.63;;
18290;SDS011;9271;48.590;8.866;2024-03-17T00:10:50;4.90;;;4.50;;
18290;SDS011;9271;48.590;8.866;2024-03-17T00:13:16;4.63;;;4.23;;
18290;SDS011;9271;48.590;8.866;2024-03-17T00:15:43;4.47;;;4.07;;
18290;SDS011;9271;48.590;8.866;2024-03-17T00:18:09;5.10;;;4.57;;
18290;SDS011;9271;48.590;8.866;2024-03-17T00:20:36;4.97;;;4.47;;
18290;SDS011;9271;48.590;8.866;2024-03-17T00:23:03;5.83;;;4.77;;
18290;SDS011;9271;48.590;8.866;2024-03-17T00:25:31;5.27;;;4.23;;
18290;SDS011;9271;48.590;8.866;2024-03-17T00:27:57;5.33;;;4.17;;
18290;SDS011;9271;48.590;8.866;2024-03-17T00:30:23;4.83;;;4.43;;
18290;SDS011;9271;48.590;8.866;2024-03-17T00:32:49;4.70;;;4.30;;
18290;SDS011;9271;48.590;8.866;2024-03-17T00:35:16;4.97;;;4.47;;
18290;SDS011;9271;48.590;8.866;2024-03-17T00:37:45;4.73;;;4.30;;
18290;SDS011;9271;48.590;8.866;2024-03-17T00:40:13;6.27;;;4.80;;
18290;SDS011;9271;48.590;8.866;2024-03-17T00:42:39;4.60;;;4.20;;
18290;SDS011;9271;48.590;8.866;2024-03-17T00:45:06;4.50;;;4.13;;
18290;SDS011;9271;48.590;8.866;2024-03-17T00:47:32;5.40;;;4.67;;
18290;SDS011;9271;48.590;8.866;2024-03-17T00:49:59;4.73;;;4.13;;
18290;SDS011;9271;48.590;8.866;2024-03-17T00:52:25;4.50;;;3.83;;
18290;SDS011;9271;48.590;8.866;2024-03-17T00:54:52;4.40;;;4.00;;
18290;SDS011;9271;48.590;8.866;2024-03-17T00:57:20;4.60;;;4.20;;
18290;SDS011;9271;48.590;8.866;2024-03-17T00:59:47;4.40;;;4.00;;
18290;SDS011;9271;48.590;8.866;2024-03-17T01:02:12;4.57;;;4.20;;
18290;SDS011;9271;48.590;8.866;2024-03-17T01:04:41;5.53;;;4.20;;
18290;SDS011;9271;48.590;8.866;2024-03-17T01:07:08;4.67;;;4.13;;
18290;SDS011;9271;48.590;8.866;2024-03-17T01:09:34;5.33;;;4.70;;
18290;SDS011;9271;48.590;8.866;2024-03-17T01:12:01;4.40;;;4.10;;
18290;SDS011;9271;48.590;8.866;2024-03-17T01:14:28;4.93;;;4.47;;
18290;SDS011;9271;48.590;8.866;2024-03-17T01:16:55;4.73;;;4.33;;
18290;SDS011;9271;48.590;8.866;2024-03-17T01:19:22;4.87;;;4.37;;
18290;SDS011;9271;48.590;8.866;2024-03-17T01:21:48;5.10;;;4.60;;
18290;SDS011;9271;48.590;8.866;2024-03-17T01:24:14;7.07;;;5.13;;
18290;SDS011;9271;48.590;8.866;2024-03-17T01:26:41;6.63;;;5.37;;
18290;SDS011;9271;48.590;8.866;2024-03-17T01:29:07;4.30;;;3.90;;
18290;SDS011;9271;48.590;8.866;2024-03-17T01:31:35;5.23;;;4.73;;
18290;SDS011;9271;48.590;8.866;2024-03-17T01:34:01;5.10;;;4.60;;
18290;SDS011;9271;48.590;8.866;2024-03-17T01:36:28;5.20;;;4.70;;
18290;SDS011;9271;48.590;8.866;2024-03-17T01:38:54;7.03;;;4.60;;
18290;SDS011;9271;48.590;8.866;2024-03-17T01:41:20;4.43;;;3.97;;
18290;SDS011;9271;48.590;8.866;2024-03-17T01:43:46;3.83;;;3.53;;
18290;SDS011;9271;48.590;8.866;2024-03-17T01:46:15;3.80;;;3.40;;
18290;SDS011;9271;48.590;8.866;2024-03-17T01:48:43;5.57;;;3.63;;
18290;SDS011;9271;48.590;8.866;2024-03-17T01:51:11;3.53;;;3.33;;
18290;SDS011;9271;48.590;8.866;2024-03-17T01:53:40;3.83;;;3.43;;
18290;SDS011;9271;48.590;8.866;2024-03-17T01:56:08;4.03;;;3.73;;
18290;SDS011;9271;48.590;8.866;2024-03-17T01:58:35;3.97;;;3.67;;
18290;SDS011;9271;48.590;8.866;2024-03-17T02:01:02;3.73;;;3.30;;
18290;SDS011;9271;48.590;8.866;2024-03-17T02:03:29;4.40;;;4.00;;
18290;SDS011;9271;48.590;8.866;2024-03-17T02:05:57;4.13;;;3.73;;
18290;SDS011;9271;48.590;8.866;2024-03-17T02:08:23;5.03;;;4.23;;
18290;SDS011;9271;48.590;8.866;2024-03-17T02:10:52;4.03;;;3.63;;
18290;SDS011;9271;48.590;8.866;2024-03-17T02:13:18;4.07;;;3.67;;
18290;SDS011;9271;48.590;8.866;2024-03-17T02:15:45;4.07;;;3.60;;
18290;SDS011;9271;48.590;8.866;2024-03-17T02:18:11;4.80;;;3.63;;
18290;SDS011;9271;48.590;8.866;2024-03-17T02:20:37;3.87;;;3.57;;
18290;SDS011;9271;48.590;8.866;2024-03-17T02:23:25;4.47;;;3.97;;
18290;SDS011;9271;48.590;8.866;2024-03-17T02:25:52;5.37;;;4.20;;
18290;SDS011;9271;48.590;8.866;2024-03-17T02:28:18;5.93;;;4.10;;
18290;SDS011;9271;48.590;8.866;2024-03-17T02:30:45;6.60;;;4.47;;
18290;SDS011;9271;48.590;8.866;2024-03-17T02:33:10;4.63;;;4.20;;
18290;SDS011;9271;48.590;8.866;2024-03-17T02:35:37;4.63;;;4.23;;
18290;SDS011;9271;48.590;8.866;2024-03-17T02:38:03;4.53;;;4.13;;
18290;SDS011;9271;48.590;8.866;2024-03-17T02:40:31;4.73;;;4.23;;
18290;SDS011;9271;48.590;8.866;2024-03-17T02:42:57;4.90;;;4.47;;
18290;SDS011;9271;48.590;8.866;2024-03-17T02:45:23;4.20;;;3.80;;
18290;SDS011;9271;48.590;8.866;2024-03-17T02:47:50;4.10;;;3.80;;
18290;SDS011;9271;48.590;8.866;2024-03-17T02:50:17;4.37;;;3.97;;
18290;SDS011;9271;48.590;8.866;2024-03-17T02:52:43;3.93;;;3.63;;
18290;SDS011;9271;48.590;8.866;2024-03-17T02:55:10;4.13;;;3.73;;
18290;SDS011;9271;48.590;8.866;2024-03-17T02:57:37;5.03;;;3.80;;
18290;SDS011;9271;48.590;8.866;2024-03-17T03:00:04;4.00;;;3.70;;
18290;SDS011;9271;48.590;8.866;2024-03-17T03:02:37;4.23;;;3.93;;
18290;SDS011;9271;48.590;8.866;2024-03-17T03:05:04;4.83;;;3.93;;
18290;SDS011;9271;48.590;8.866;2024-03-17T03:07:31;4.00;;;3.70;;
18290;SDS011;9271;48.590;8.866;2024-03-17T03:09:58;5.77;;;4.20;;
18290;SDS011;9271;48.590;8.866;2024-03-17T03:12:24;4.37;;;3.97;;
18290;SDS011;9271;48.590;8.866;2024-03-17T03:14:53;3.90;;;3.57;;
18290;SDS011;9271;48.590;8.866;2024-03-17T03:17:19;3.83;;;3.53;;
18290;SDS011;9271;48.590;8.866;2024-03-17T03:19:46;3.87;;;3.47;;
18290;SDS011;9271;48.590;8.866;2024-03-17T03:22:12;4.63;;;3.80;;
18290;SDS011;9271;48.590;8.866;2024-03-17T03:24:39;4.20;;;3.67;;
18290;SDS011;9271;48.590;8.866;2024-03-17T03:27:06;3.47;;;3.20;;
18290;SDS011;9271;48.590;8.866;2024-03-17T03:29:33;3.90;;;3.50;;
18290;SDS011;9271;48.590;8.866;2024-03-17T03:32:01;4.17;;;3.27;;
18290;SDS011;9271;48.590;8.866;2024-03-17T03:34:28;3.60;;;3.30;;
18290;SDS011;9271;48.590;8.866;2024-03-17T03:36:54;4.03;;;3.70;;
18290;SDS011;9271;48.590;8.866;2024-03-17T03:39:21;3.20;;;3.00;;
18290;SDS011;9271;48.590;8.866;2024-03-17T03:41:48;3.63;;;3.33;;
18290;SDS011;9271;48.590;8.866;2024-03-17T03:44:15;4.20;;;3.70;;
18290;SDS011;9271;48.590;8.866;2024-03-17T03:46:42;4.50;;;4.10;;
18290;SDS011;9271;48.590;8.866;2024-03-17T03:49:11;5.00;;;4.60;;
18290;SDS011;9271;48.590;8.866;2024-03-17T03:51:38;4.30;;;3.90;;
18290;SDS011;9271;48.590;8.866;2024-03-17T03:54:05;4.57;;;4.00;;
18290;SDS011;9271;48.590;8.866;2024-03-17T03:56:32;4.27;;;3.83;;
18290;SDS011;9271;48.590;8.866;2024-03-17T03:58:59;4.57;;;4.17;;
18290;SDS011;9271;48.590;8.866;2024-03-17T04:01:25;4.57;;;4.17;;
18290;SDS011;9271;48.590;8.866;2024-03-17T04:03:52;5.27;;;4.70;;
18290;SDS011;9271;48.590;8.866;2024-03-17T04:06:20;4.83;;;4.20;;
18290;SDS011;9271;48.590;8.866;2024-03-17T04:08:46;4.10;;;3.80;;
18290;SDS011;9271;48.590;8.866;2024-03-17T04:11:13;4.20;;;3.80;;
18290;SDS011;9271;48.590;8.866;2024-03-17T04:13:41;7.87;;;4.40;;
18290;SDS011;9271;48.590;8.866;2024-03-17T04:16:08;5.10;;;4.53;;
18290;SDS011;9271;48.590;8.866;2024-03-17T04:18:35;4.60;;;4.20;;
18290;SDS011;9271;48.590;8.866;2024-03-17T04:21:03;4.70;;;4.30;;
18290;SDS011;9271;48.590;8.866;2024-03-17T04:23:33;4.83;;;3.60;;
18290;SDS011;9271;48.590;8.866;2024-03-17T04:26:00;4.57;;;3.87;;
18290;SDS011;9271;48.590;8.866;2024-03-17T04:28:28;4.20;;;3.80;;
18290;SDS011;9271;48.590;8.866;2024-03-17T04:31:02;3.93;;;3.60;;
18290;SDS011;9271;48.590;8.866;2024-03-17T04:33:30;4.63;;;3.50;;
18290;SDS011;9271;48.590;8.866;2024-03-17T04:35:56;3.80;;;3.33;;
18290;SDS011;9271;48.590;8.866;2024-03-17T04:38:23;3.70;;;3.40;;
18290;SDS011;9271;48.590;8.866;2024-03-17T04:40:51;5.77;;;3.47;;
18290;SDS011;9271;48.590;8.866;2024-03-17T04:43:24;3.43;;;3.10;;
18290;SDS011;9271;48.590;8.866;2024-03-17T04:45:58;3.23;;;2.93;;
18290;SDS011;9271;48.590;8.866;2024-03-17T04:48:26;5.57;;;3.50;;
18290;SDS011;9271;48.590;8.866;2024-03-17T04:50:53;4.03;;;3.63;;
18290;SDS011;9271;48.590;8.866;2024-03-17T04:53:20;4.07;;;3.73;;
18290;SDS011;9271;48.590;8.866;2024-03-17T04:55:46;3.57;;;3.27;;
18290;SDS011;9271;48.590;8.866;2024-03-17T04:58:14;4.33;;;3.60;;
18290;SDS011;9271;48.590;8.866;2024-03-17T05:00:41;4.20;;;3.80;;
18290;SDS011;9271;48.590;8.866;2024-03-17T05:03:07;4.53;;;3.80;;
18290;SDS011;9271;48.590;8.866;2024-03-17T05:05:34;4.10;;;3.50;;
18290;SDS011;9271;48.590;8.866;2024-03-17T05:08:01;4.53;;;3.47;;
18290;SDS011;9271;48.590;8.866;2024-03-17T05:10:28;3.87;;;3.47;;
18290;SDS011;9271;48.590;8.866;2024-03-17T05:12:55;3.90;;;3.50;;
18290;SDS011;9271;48.590;8.866;2024-03-17T05:15:23;4.00;;;3.50;;
18290;SDS011;9271;48.590;8.866;2024-03-17T05:17:49;3.40;;;3.10;;
18290;SDS011;9271;48.590;8.866;2024-03-17T05:20:16;3.67;;;3.37;;
18290;SDS011;9271;48.590;8.866;2024-03-17T05:22:43;3.67;;;3.20;;
18290;SDS011;9271;48.590;8.866;2024-03-17T05:25:11;4.23;;;3.83;;
18290;SDS011;9271;48.590;8.866;2024-03-17T05:27:38;3.90;;;3.33;;
18290;SDS011;9271;48.590;8.866;2024-03-17T05:30:06;3.60;;;3.30;;
18290;SDS011;9271;48.590;8.866;2024-03-17T05:32:35;4.20;;;3.50;;
18290;SDS011;9271;48.590;8.866;2024-03-17T05:35:01;3.87;;;3.57;;
18290;SDS011;9271;48.590;8.866;2024-03-17T05:37:28;3.83;;;3.53;;
18290;SDS011;9271;48.590;8.866;2024-03-17T05:39:55;3.87;;;3.57;;
18290;SDS011;9271;48.590;8.866;2024-03-17T05:42:22;4.27;;;3.83;;
18290;SDS011;9271;48.590;8.866;2024-03-17T05:44:49;6.23;;;3.83;;
18290;SDS011;9271;48.590;8.866;2024-03-17T05:47:16;4.20;;;3.80;;
18290;SDS011;9271;48.590;8.866;2024-03-17T05:49:45;4.27;;;3.87;;
18290;SDS011;9271;48.590;8.866;2024-03-17T05:52:12;4.83;;;4.00;;
18290;SDS011;9271;48.590;8.866;2024-03-17T05:54:38;4.20;;;3.80;;
18290;SDS011;9271;48.590;8.866;2024-03-17T05:57:05;5.47;;;4.90;;
18290;SDS011;9271;48.590;8.866;2024-03-17T05:59:32;6.43;;;4.00;;
18290;SDS011;9271;48.590;8.866;2024-03-17T06:01:59;4.10;;;3.70;;
18290;SDS011;9271;48.590;8.866;2024-03-17T06:04:25;3.80;;;3.47;;
18290;SDS011;9271;48.590;8.866;2024-03-17T06:06:53;3.80;;;3.50;;
18290;SDS011;9271;48.590;8.866;2024-03-17T06:09:20;4.97;;;3.70;;
18290;SDS011;9271;48.590;8.866;2024-03-17T06:11:47;4.00;;;3.70;;
18290;SDS011;9271;48.590;8.866;2024-03-17T06:14:15;3.47;;;3.20;;
18290;SDS011;9271;48.590;8.866;2024-03-17T06:16:42;3.80;;;3.20;;
18290;SDS011;9271;48.590;8.866;2024-03-17T06:19:09;3.80;;;3.50;;
18290;SDS011;9271;48.590;8.866;2024-03-17T06:21:36;4.90;;;3.23;;
18290;SDS011;9271;48.590;8.866;2024-03-17T06:24:05;5.03;;;3.30;;
18290;SDS011;9271;48.590;8.866;2024-03-17T06:26:32;4.20;;;3.50;;
18290;SDS011;9271;48.590;8.866;2024-03-17T06:28:59;3.57;;;3.27;;
18290;SDS011;9271;48.590;8.866;2024-03-17T06:31:26;3.70;;;3.40;;
18290;SDS011;9271;48.590;8.866;2024-03-17T06:33:52;4.50;;;3.30;;
18290;SDS011;9271;48.590;8.866;2024-03-17T06:36:19;3.50;;;3.20;;
18290;SDS011;9271;48.590;8.866;2024-03-17T06:38:46;6.70;;;4.50;;
18290;SDS011;9271;48.590;8.866;2024-03-17T06:41:14;3.73;;;3.43;;
18290;SDS011;9271;48.590;8.866;2024-03-17T06:43:41;4.37;;;3.77;;
18290;SDS011;9271;48.590;8.866;2024-03-17T06:46:08;4.03;;;3.60;;
18290;SDS011;9271;48.590;8.866;2024-03-17T06:48:35;4.43;;;4.03;;
18290;SDS011;9271;48.590;8.866;2024-03-17T06:51:01;5.43;;;4.20;;
18290;SDS011;9271;48.590;8.866;2024-03-17T06:53:28;6.57;;;4.87;;
18290;SDS011;9271;48.590;8.866;2024-03-17T06:55:55;5.10;;;4.20;;
18290;SDS011;9271;48.590;8.866;2024-03-17T06:58:24;4.70;;;4.30;;
18290;SDS011;9271;48.590;8.866;2024-03-17T07:00:53;4.77;;;4.20;;
18290;SDS011;9271;48.590;8.866;2024-03-17T07:03:22;4.30;;;3.57;;
18290;SDS011;9271;48.590;8.866;2024-03-17T07:05:54;4.40;;;4.00;;
18290;SDS011;9271;48.590;8.866;2024-03-17T07:08:21;3.90;;;3.47;;
18290;SDS011;9271;48.590;8.866;2024-03-17T07:10:59;4.23;;;3.50;;
18290;SDS011;9271;48.590;8.866;2024-03-17T07:13:29;3.37;;;3.10;;
18290;SDS011;9271;48.590;8.866;2024-03-17T07:15:57;4.10;;;3.60;;
18290;SDS011;9271;48.590;8.866;2024-03-17T07:18:24;4.27;;;3.57;;
18290;SDS011;9271;48.590;8.866;2024-03-17T07:20:52;4.27;;;3.60;;
18290;SDS011;9271;48.590;8.866;2024-03-17T07:23:19;3.93;;;3.60;;
18290;SDS011;9271;48.590;8.866;2024-03-17T07:25:52;5.33;;;3.97;;
18290;SDS011;9271;48.590;8.866;2024-03-17T07:28:19;4.80;;;4.40;;
18290;SDS011;9271;48.590;8.866;2024-03-17T07:30:48;4.50;;;4.10;;
18290;SDS011;9271;48.590;8.866;2024-03-17T07:33:16;5.23;;;3.73;;
18290;SDS011;9271;48.590;8.866;2024-03-17T07:35:49;4.03;;;3.53;;
18290;SDS011;9271;48.590;8.866;2024-03-17T07:38:16;3.77;;;3.47;;
18290;SDS011;9271;48.590;8.866;2024-03-17T07:40:44;3.80;;;3.50;;
18290;SDS011;9271;48.590;8.866;2024-03-17T07:43:11;3.30;;;3.10;;
18290;SDS011;9271;48.590;8.866;2024-03-17T07:45:38;3.83;;;3.27;;
18290;SDS011;9271;48.590;8.866;2024-03-17T07:48:06;3.60;;;3.30;;
18290;SDS011;9271;48.590;8.866;2024-03-17T07:50:33;4.47;;;3.20;;
18290;SDS011;9271;48.590;8.866;2024-03-17T07:52:59;3.53;;;3.23;;
18290;SDS011;9271;48.590;8.866;2024-03-17T07:55:27;3.10;;;2.90;;
18290;SDS011;9271;48.590;8.866;2024-03-17T07:57:55;3.60;;;3.30;;
18290;SDS011;9271;48.590;8.866;2024-03-17T08:00:22;3.27;;;3.07;;
18290;SDS011;9271;48.590;8.866;2024-03-17T08:02:48;3.37;;;2.97;;
18290;SDS011;9271;48.590;8.866;2024-03-17T08:05:16;3.07;;;2.83;;
18290;SDS011;9271;48.590;8.866;2024-03-17T08:07:43;5.50;;;3.33;;
18290;SDS011;9271;48.590;8.866;2024-03-17T08:10:10;3.37;;;3.17;;
18290;SDS011;9271;48.590;8.866;2024-03-17T08:12:36;5.03;;;3.70;;
18290;SDS011;9271;48.590;8.866;2024-03-17T08:15:03;3.67;;;3.37;;
18290;SDS011;9271;48.590;8.866;2024-03-17T08:17:30;3.90;;;3.60;;
18290;SDS011;9271;48.590;8.866;2024-03-17T08:19:57;3.90;;;3.60;;
18290;SDS011;9271;48.590;8.866;2024-03-17T08:22:25;3.83;;;3.30;;
18290;SDS011;9271;48.590;8.866;2024-03-17T08:24:51;3.97;;;3.37;;
18290;SDS011;9271;48.590;8.866;2024-03-17T08:27:18;4.43;;;3.53;;
18290;SDS011;9271;48.590;8.866;2024-03-17T08:29:45;3.87;;;3.57;;
18290;SDS011;9271;48.590;8.866;2024-03-17T08:32:12;4.20;;;3.77;;
18290;SDS011;9271;48.590;8.866;2024-03-17T08:34:39;4.57;;;3.60;;
18290;SDS011;9271;48.590;8.866;2024-03-17T08:37:06;3.93;;;3.10;;
18290;SDS011;9271;48.590;8.866;2024-03-17T08:39:35;3.80;;;3.50;;
18290;SDS011;9271;48.590;8.866;2024-03-17T08:42:02;3.50;;;3.20;;
18290;SDS011;9271;48.590;8.866;2024-03-17T08:44:28;3.60;;;3.30;;
18290;SDS011;9271;48.590;8.866;2024-03-17T08:46:55;3.20;;;3.00;;
18290;SDS011;9271;48.590;8.866;2024-03-17T08:49:22;3.10;;;2.90;;
18290;SDS011;9271;48.590;8.866;2024-03-17T08:51:49;3.47;;;2.90;;
18290;SDS011;9271;48.590;8.866;2024-03-17T08:54:16;4.00;;;3.20;;
18290;SDS011;9271;48.590;8.866;2024-03-17T08:56:44;3.30;;;3.10;;
18290;SDS011;9271;48.590;8.866;2024-03-17T08:59:11;3.43;;;3.10;;
18290;SDS011;9271;48.590;8.866;2024-03-17T09:01:38;3.87;;;2.80;;
18290;SDS011;9271;48.590;8.866;2024-03-17T09:04:05;3.30;;;3.00;;
18290;SDS011;9271;48.590;8.866;2024-03-17T09:06:31;4.27;;;2.90;;
18290;SDS011;9271;48.590;8.866;2024-03-17T09:08:59;4.77;;;3.13;;
18290;SDS011;9271;48.590;8.866;2024-03-17T09:11:27;3.97;;;3.10;;
18290;SDS011;9271;48.590;8.866;2024-03-17T09:13:55;3.50;;;3.20;;
18290;SDS011;9271;48.590;8.866;2024-03-17T09:16:23;3.43;;;3.13;;
18290;SDS011;9271;48.590;8.866;2024-03-17T09:18:50;3.33;;;3.13;;
18290;SDS011;9271;48.590;8.866;2024-03-17T09:21:17;3.33;;;2.90;;
18290;SDS011;9271;48.590;8.866;2024-03-17T09:23:44;3.43;;;3.13;;
18290;SDS011;9271;48.590;8.866;2024-03-17T09:26:11;3.40;;;3.10;;
18290;SDS011;9271;48.590;8.866;2024-03-17T09:28:40;4.53;;;3.60;;
18290;SDS011;9271;48.590;8.866;2024-03-17T09:31:10;3.50;;;3.30;;
18290;SDS011;9271;48.590;8.866;2024-03-17T09:33:37;3.93;;;3.53;;
18290;SDS011;9271;48.590;8.866;2024-03-17T09:36:05;3.60;;;3.30;;
18290;SDS011;9271;48.590;8.866;2024-03-17T09:38:33;3.03;;;2.83;;
18290;SDS011;9271;48.590;8.866;2024-03-17T09:41:00;2.93;;;2.70;;
18290;SDS011;9271;48.590;8.866;2024-03-17T09:43:27;3.63;;;3.33;;
18290;SDS011;9271;48.590;8.866;2024-03-17T09:45:54;3.00;;;2.80;;
18290;SDS011;9271;48.590;8.866;2024-03-17T09:48:24;3.23;;;2.93;;
18290;SDS011;9271;48.590;8.866;2024-03-17T09:50:53;4.07;;;2.87;;
18290;SDS011;9271;48.590;8.866;2024-03-17T09:53:22;3.27;;;3.07;;
18290;SDS011;9271;48.590;8.866;2024-03-17T09:55:50;2.73;;;2.50;;
18290;SDS011;9271;48.590;8.866;2024-03-17T09:58:18;2.87;;;2.67;;
18290;SDS011;9271;48.590;8.866;2024-03-17T10:00:45;2.80;;;2.53;;
18290;SDS011;9271;48.590;8.866;2024-03-17T10:03:12;3.37;;;2.77;;
18290;SDS011;9271;48.590;8.866;2024-03-17T10:06:01;2.50;;;2.30;;
18290;SDS011;9271;48.590;8.866;2024-03-17T10:08:28;2.80;;;2.60;;
18290;SDS011;9271;48.590;8.866;2024-03-17T10:10:58;2.80;;;2.60;;
18290;SDS011;9271;48.590;8.866;2024-03-17T10:13:25;2.77;;;2.57;;
18290;SDS011;9271;48.590;8.866;2024-03-17T10:15:52;3.17;;;2.60;;
18290;SDS011;9271;48.590;8.866;2024-03-17T10:18:20;2.23;;;2.10;;
18290;SDS011;9271;48.590;8.866;2024-03-17T10:20:48;2.00;;;1.90;;
18290;SDS011;9271;48.590;8.866;2024-03-17T10:23:19;2.60;;;2.40;;
18290;SDS011;9271;48.590;8.866;2024-03-17T10:25:45;4.93;;;2.80;;
18290;SDS011;9271;48.590;8.866;2024-03-17T10:28:13;2.70;;;2.40;;
18290;SDS011;9271;48.590;8.866;2024-03-17T10:30:40;3.23;;;2.70;;
18290;SDS011;9271;48.590;8.866;2024-03-17T10:33:08;4.93;;;2.70;;
18290;SDS011;9271;48.590;8.866;2024-03-17T10:35:50;2.93;;;2.30;;
18290;SDS011;9271;48.590;8.866;2024-03-17T10:38:24;5.23;;;2.40;;
18290;SDS011;9271;48.590;8.866;2024-03-17T10:40:52;2.30;;;2.10;;
18290;SDS011;9271;48.590;8.866;2024-03-17T10:43:18;2.50;;;2.30;;
18290;SDS011;9271;48.590;8.866;2024-03-17T10:45:49;2.17;;;1.97;;
18290;SDS011;9271;48.590;8.866;2024-03-17T10:48:19;3.10;;;2.27;;
18290;SDS011;9271;48.590;8.866;2024-03-17T10:50:47;2.80;;;2.43;;
18290;SDS011;9271;48.590;8.866;2024-03-17T10:53:16;2.50;;;2.30;;
18290;SDS011;9271;48.590;8.866;2024-03-17T10:55:53;2.70;;;2.50;;
18290;SDS011;9271;48.590;8.866;2024-03-17T10:58:32;3.90;;;2.30;;
18290;SDS011;9271;48.590;8.866;2024-03-17T11:01:01;3.70;;;2.40;;
18290;SDS011;9271;48.590;8.866;2024-03-17T11:03:29;2.30;;;2.10;;
18290;SDS011;9271;48.590;8.866;2024-03-17T11:06:00;3.03;;;2.27;;
18290;SDS011;9271;48.590;8.866;2024-03-17T11:08:29;2.40;;;2.10;;
18290;SDS011;9271;48.590;8.866;2024-03-17T11:10:59;2.50;;;2.27;;
18290;SDS011;9271;48.590;8.866;2024-03-17T11:13:26;3.03;;;2.30;;
18290;SDS011;9271;48.590;8.866;2024-03-17T11:15:54;3.80;;;2.50;;
18290;SDS011;9271;48.590;8.866;2024-03-17T11:18:28;3.30;;;2.20;;
18290;SDS011;9271;48.590;8.866;2024-03-17T11:21:05;2.43;;;2.10;;
18290;SDS011;9271;48.590;8.866;2024-03-17T11:23:35;2.50;;;2.30;;
18290;SDS011;9271;48.590;8.866;2024-03-17T11:26:04;3.57;;;2.07;;
18290;SDS011;9271;48.590;8.866;2024-03-17T11:28:47;2.50;;;1.97;;
18290;SDS011;9271;48.590;8.866;2024-03-17T11:37:09;2.97;;;1.77;;
18290;SDS011;9271;48.590;8.866;2024-03-17T11:40:22;3.47;;;2.00;;
18290;SDS011;9271;48.590;8.866;2024-03-17T11:43:01;2.13;;;1.73;;
18290;SDS011;9271;48.590;8.866;2024-03-17T11:45:30;2.57;;;1.73;;
18290;SDS011;9271;48.590;8.866;2024-03-17T11:47:55;2.87;;;2.53;;
18290;SDS011;9271;48.590;8.866;2024-03-17T11:50:23;4.43;;;2.87;;
18290;SDS011;9271;48.590;8.866;2024-03-17T11:52:57;2.43;;;1.90;;
18290;SDS011;9271;48.590;8.866;2024-03-17T11:55:24;3.27;;;1.77;;
18290;SDS011;9271;48.590;8.866;2024-03-17T11:57:55;2.43;;;1.70;;
18290;SDS011;9271;48.590;8.866;2024-03-17T12:00:24;2.00;;;1.80;;
18290;SDS011;9271;48.590;8.866;2024-03-17T12:02:50;2.03;;;1.80;;
18290;SDS011;9271;48.590;8.866;2024-03-17T12:05:17;2.60;;;1.60;;
18290;SDS011;9271;48.590;8.866;2024-03-17T12:07:43;1.63;;;1.50;;
18290;SDS011;9271;48.590;8.866;2024-03-17T12:10:10;2.17;;;1.73;;
18290;SDS011;9271;48.590;8.866;2024-03-17T12:12:38;2.83;;;1.93;;
18290;SDS011;9271;48.590;8.866;2024-03-17T12:15:13;2.77;;;1.57;;
18290;SDS011;9271;48.590;8.866;2024-03-17T12:17:43;2.50;;;1.70;;
18290;SDS011;9271;48.590;8.866;2024-03-17T12:20:16;4.30;;;1.90;;
18290;SDS011;9271;48.590;8.866;2024-03-17T12:22:42;2.20;;;1.73;;
18290;SDS011;9271;48.590;8.866;2024-03-17T12:25:13;2.00;;;1.50;;
18290;SDS011;9271;48.590;8.866;2024-03-17T12:27:43;3.40;;;1.90;;
18290;SDS011;9271;48.590;8.866;2024-03-17T12:30:11;1.90;;;1.53;;
18290;SDS011;9271;48.590;8.866;2024-03-17T12:32:37;2.20;;;1.60;;
18290;SDS011;9271;48.590;8.866;2024-03-17T12:35:09;2.67;;;1.60;;
18290;SDS011;9271;48.590;8.866;2024-03-17T12:37:38;3.67;;;2.30;;
18290;SDS011;9271;48.590;8.866;2024-03-17T12:40:06;2.67;;;1.40;;
18290;SDS011;9271;48.590;8.866;2024-03-17T12:42:47;1.67;;;1.40;;
18290;SDS011;9271;48.590;8.866;2024-03-17T12:45:14;2.27;;;1.47;;
18290;SDS011;9271;48.590;8.866;2024-03-17T12:47:46;3.30;;;1.30;;
18290;SDS011;9271;48.590;8.866;2024-03-17T12:50:15;1.83;;;1.50;;
18290;SDS011;9271;48.590;8.866;2024-03-17T12:52:46;1.93;;;1.50;;
18290;SDS011;9271;48.590;8.866;2024-03-17T12:55:18;1.70;;;1.37;;
18290;SDS011;9271;48.590;8.866;2024-03-17T12:58:06;1.60;;;1.33;;
18290;SDS011;9271;48.590;8.866;2024-03-17T13:00:58;1.93;;;1.40;;
18290;SDS011;9271;48.590;8.866;2024-03-17T13:03:26;1.87;;;1.20;;
18290;SDS011;9271;48.590;8.866;2024-03-17T13:05:58;2.07;;;1.20;;
18290;SDS011;9271;48.590;8.866;2024-03-17T13:08:24;1.70;;;1.20;;
18290;SDS011;9271;48.590;8.866;2024-03-17T13:10:51;1.43;;;1.20;;
18290;SDS011;9271;48.590;8.866;2024-03-17T13:13:18;1.50;;;1.03;;
18290;SDS011;9271;48.590;8.866;2024-03-17T13:15:44;1.90;;;1.10;;
18290;SDS011;9271;48.590;8.866;2024-03-17T13:18:15;0.90;;;0.90;;
18290;SDS011;9271;48.590;8.866;2024-03-17T13:20:44;1.77;;;1.00;;
18290;SDS011;9271;48.590;8.866;2024-03-17T13:23:12;1.60;;;1.10;;
18290;SDS011;9271;48.590;8.866;2024-03-17T13:25:39;1.33;;;0.97;;
18290;SDS011;9271;48.590;8.866;2024-03-17T13:28:08;1.17;;;1.00;;
18290;SDS011;9271;48.590;8.866;2024-03-17T13:30:35;1.57;;;1.10;;
18290;SDS011;9271;48.590;8.866;2024-03-17T13:33:02;1.37;;;1.20;;
18290;SDS011;9271;48.590;8.866;2024-03-17T13:35:33;1.77;;;1.20;;
18290;SDS011;9271;48.590;8.866;2024-03-17T13:38:03;2.73;;;1.20;;
18290;SDS011;9271;48.590;8.866;2024-03-17T13:40:33;2.20;;;0.97;;
18290;SDS011;9271;48.590;8.866;2024-03-17T13:43:00;1.37;;;1.13;;
18290;SDS011;9271;48.590;8.866;2024-03-17T13:45:28;0.90;;;0.90;;
18290;SDS011;9271;48.590;8.866;2024-03-17T13:48:03;1.67;;;0.97;;
18290;SDS011;9271;48.590;8.866;2024-03-17T13:50:31;2.03;;;1.07;;
18290;SDS011;9271;48.590;8.866;2024-03-17T13:52:58;1.23;;;1.13;;
18290;SDS011;9271;48.590;8.866;2024-03-17T13:55:28;1.20;;;1.00;;
18290;SDS011;9271;48.590;8.866;2024-03-17T13:57:57;2.30;;;1.10;;
18290;SDS011;9271;48.590;8.866;2024-03-17T14:00:25;2.43;;;0.90;;
18290;SDS011;9271;48.590;8.866;2024-03-17T14:02:53;1.27;;;1.00;;
18290;SDS011;9271;48.590;8.866;2024-03-17T14:05:21;1.70;;;1.50;;
18290;SDS011;9271;48.590;8.866;2024-03-17T14:07:48;1.43;;;1.33;;
18290;SDS011;9271;48.590;8.866;2024-03-17T14:10:16;1.20;;;1.00;;
18290;SDS011;9271;48.590;8.866;2024-03-17T14:12:44;1.30;;;1.20;;
18290;SDS011;9271;48.590;8.866;2024-03-17T14:15:13;2.63;;;1.30;;
18290;SDS011;9271;48.590;8.866;2024-03-17T14:17:41;1.77;;;1.30;;
18290;SDS011;9271;48.590;8.866;2024-03-17T14:20:09;3.47;;;1.80;;
18290;SDS011;9271;48.590;8.866;2024-03-17T14:22:38;3.40;;;1.40;;
18290;SDS011;9271;48.590;8.866;2024-03-17T14:25:06;2.40;;;1.20;;
18290;SDS011;9271;48.590;8.866;2024-03-17T14:27:34;1.87;;;1.10;;
18290;SDS011;9271;48.590;8.866;2024-03-17T14:30:01;1.17;;;1.00;;
18290;SDS011;9271;48.590;8.866;2024-03-17T14:32:30;1.97;;;1.40;;
18290;SDS011;9271;48.590;8.866;2024-03-17T14:34:57;1.67;;;1.27;;
18290;SDS011;9271;48.590;8.866;2024-03-17T14:37:24;1.40;;;1.10;;
18290;SDS011;9271;48.590;8.866;2024-03-17T14:39:51;1.50;;;1.00;;
18290;SDS011;9271;48.590;8.866;2024-03-17T14:42:18;1.13;;;1.07;;
18290;SDS011;9271;48.590;8.866;2024-03-17T14:44:45;2.03;;;0.90;;
18290;SDS011;9271;48.590;8.866;2024-03-17T14:47:12;1.73;;;1.00;;
18290;SDS011;9271;48.590;8.866;2024-03-17T14:49:40;1.40;;;1.30;;
18290;SDS011;9271;48.590;8.866;2024-03-17T14:52:07;1.40;;;1.00;;
18290;SDS011;9271;48.590;8.866;2024-03-17T14:54:34;2.03;;;1.00;;
18290;SDS011;9271;48.590;8.866;2024-03-17T14:57:01;1.20;;;0.90;;
18290;SDS011;9271;48.590;8.866;2024-03-17T14:59:28;1.47;;;0.87;;
18290;SDS011;9271;48.590;8.866;2024-03-17T15:01:54;1.83;;;1.00;;
18290;SDS011;9271;48.590;8.866;2024-03-17T15:04:21;1.43;;;1.03;;
18290;SDS011;9271;48.590;8.866;2024-03-17T15:06:49;0.90;;;0.87;;
18290;SDS011;9271;48.590;8.866;2024-03-17T15:09:16;1.30;;;0.90;;
18290;SDS011;9271;48.590;8.866;2024-03-17T15:11:44;1.33;;;0.87;;